createdAt,value
2023-05-19T00:00:51.559Z,99137.69
2023-05-19T00:01:54.979Z,99133.91
2023-05-19T00:02:57.439Z,99136.88
2023-05-19T00:04:05.106Z,99129.59
2023-05-19T00:05:07.905Z,99136.59
2023-05-19T00:06:10.139Z,99128.78
2023-05-19T00:07:13.639Z,99133.38
2023-05-19T00:08:20.238Z,99134.72
2023-05-19T00:09:22.475Z,99137.69
2023-05-19T00:10:24.938Z,99131.50
2023-05-19T00:11:28.375Z,99136.31
2023-05-19T00:12:30.959Z,99132.81
2023-05-19T00:13:33.475Z,99139.00
2023-05-19T00:14:36.058Z,99133.91
2023-05-19T00:15:38.527Z,99131.72
2023-05-19T00:16:42.269Z,99132.00
2023-05-19T00:17:44.192Z,99132.81
2023-05-19T00:18:47.559Z,99132.00
2023-05-19T00:19:49.987Z,99129.59
2023-05-19T00:20:52.398Z,99132.00
2023-05-19T00:21:54.246Z,99128.78
2023-05-19T00:22:56.130Z,99127.69
2023-05-19T00:23:58.933Z,99123.38
2023-05-19T00:25:00.888Z,99126.09
2023-05-19T00:26:02.789Z,99133.09
2023-05-19T00:27:04.793Z,99125.28
2023-05-19T00:28:07.252Z,99120.97
2023-05-19T00:29:09.209Z,99134.16
2023-05-19T00:30:11.545Z,99127.97
2023-05-19T00:31:13.581Z,99133.38
2023-05-19T00:32:15.939Z,99127.16
2023-05-19T00:33:17.871Z,99124.75
2023-05-19T00:34:19.754Z,99122.31
2023-05-19T00:35:22.903Z,99124.22
2023-05-19T00:36:25.056Z,99126.63
2023-05-19T00:37:27.695Z,99126.91
2023-05-19T00:38:35.934Z,99131.22
2023-05-19T00:39:37.804Z,99118.81
2023-05-19T00:40:39.958Z,99122.31
2023-05-19T00:41:41.890Z,99112.63
2023-05-19T00:42:43.768Z,99123.69
2023-05-19T00:43:45.966Z,99112.63
2023-05-19T00:44:47.903Z,99113.69
2023-05-19T00:45:50.442Z,99115.59
2023-05-19T00:46:52.396Z,99113.94
2023-05-19T00:47:54.473Z,99112.31
2023-05-19T00:48:56.423Z,99119.34
2023-05-19T00:49:58.404Z,99115.84
2023-05-19T00:51:05.169Z,99113.13
2023-05-19T00:52:07.634Z,99119.34
2023-05-19T00:53:09.815Z,99113.41
2023-05-19T00:54:11.780Z,99113.41
2023-05-19T00:55:14.887Z,99110.72
2023-05-19T00:56:18.307Z,99116.91
2023-05-19T00:57:21.280Z,99117.72
2023-05-19T00:58:25.676Z,99118.00
2023-05-19T00:59:28.046Z,99115.28
2023-05-19T01:00:31.361Z,99110.19
2023-05-19T01:01:33.435Z,99107.50
2023-05-19T01:02:38.189Z,99113.69
2023-05-19T01:03:40.936Z,99115.56
2023-05-19T01:04:45.049Z,99118.25
2023-05-19T01:05:47.638Z,99115.03
2023-05-19T01:06:54.849Z,99113.41
2023-05-19T01:07:56.796Z,99112.63
2023-05-19T01:08:58.904Z,99120.69
2023-05-19T01:10:00.915Z,99118.00
2023-05-19T01:11:03.797Z,99112.63
2023-05-19T01:12:06.208Z,99111.81
2023-05-19T01:13:09.477Z,99116.66
2023-05-19T01:14:11.367Z,99113.97
2023-05-19T01:15:14.075Z,99117.72
2023-05-19T01:16:25.570Z,99113.13
2023-05-19T01:17:35.524Z,99112.06
2023-05-19T01:19:25.454Z,99111.53
2023-05-19T01:20:46.234Z,99113.97
2023-05-19T01:22:03.250Z,99109.91
2023-05-19T01:23:40.107Z,99114.22
2023-05-19T01:25:19.964Z,99114.47
2023-05-19T01:26:49.404Z,99113.91
2023-05-19T01:28:09.445Z,99113.66
2023-05-19T01:30:09.251Z,99120.38
2023-05-19T01:31:12.877Z,99121.19
2023-05-19T01:32:21.081Z,99119.81
2023-05-19T01:33:24.786Z,99110.41
2023-05-19T01:34:27.953Z,99120.91
2023-05-19T01:35:32.942Z,99108.78
2023-05-19T01:36:37.096Z,99117.41
2023-05-19T01:37:41.179Z,99113.09
2023-05-19T01:38:45.739Z,99113.91
2023-05-19T01:39:50.374Z,99107.72
2023-05-19T01:40:54.213Z,99106.91
2023-05-19T01:41:58.165Z,99105.81
2023-05-19T01:43:02.385Z,99103.94
2023-05-19T01:44:05.513Z,99105.00
2023-05-19T01:45:12.109Z,99106.91
2023-05-19T01:46:15.674Z,99104.22
2023-05-19T01:47:18.391Z,99106.91
2023-05-19T01:48:20.884Z,99111.47
2023-05-19T01:49:22.819Z,99108.25
2023-05-19T01:50:25.080Z,99112.28
2023-05-19T01:51:27.863Z,99109.06
2023-05-19T01:52:29.937Z,99109.06
2023-05-19T01:53:31.922Z,99105.56
2023-05-19T01:54:33.841Z,99103.66
2023-05-19T01:55:45.431Z,99105.28
2023-05-19T01:57:24.060Z,99109.59
2023-05-19T01:58:47.255Z,99100.44
2023-05-19T02:00:10.607Z,99110.66
2023-05-19T02:01:36.627Z,99106.38
2023-05-19T02:03:03.687Z,99106.63
2023-05-19T02:04:23.399Z,99106.91
2023-05-19T02:05:40.046Z,99104.47
2023-05-19T02:07:15.642Z,99106.34
2023-05-19T02:08:29.217Z,99114.97
2023-05-19T02:09:54.124Z,99115.78
2023-05-19T02:11:04.033Z,99124.38
2023-05-19T02:12:19.491Z,99114.97
2023-05-19T02:13:30.134Z,99117.66
2023-05-19T02:14:45.532Z,99116.03
2023-05-19T02:15:50.943Z,99122.78
2023-05-19T02:16:53.864Z,99120.09
2023-05-19T02:18:00.326Z,99117.38
2023-05-19T02:19:02.335Z,99121.16
2023-05-19T02:20:05.799Z,99121.97
2023-05-19T02:21:13.116Z,99126.53
2023-05-19T02:22:15.239Z,99119.28
2023-05-19T02:23:17.152Z,99123.03
2023-05-19T02:24:20.188Z,99126.53
2023-05-19T02:25:23.423Z,99115.78
2023-05-19T02:26:26.129Z,99125.47
2023-05-19T02:27:28.144Z,99117.09
2023-05-19T02:28:30.119Z,99121.44
2023-05-19T02:29:32.066Z,99114.41
2023-05-19T02:30:34.177Z,99114.41
2023-05-19T02:31:36.232Z,99119.78
2023-05-19T02:32:38.126Z,99115.22
2023-05-19T02:33:40.046Z,99124.13
2023-05-19T02:34:45.616Z,99119.78
2023-05-19T02:35:47.551Z,99123.56
2023-05-19T02:36:49.982Z,99118.97
2023-05-19T02:37:51.879Z,99118.97
2023-05-19T02:38:53.845Z,99123.28
2023-05-19T02:39:56.142Z,99115.22
2023-05-19T02:40:58.592Z,99112.78
2023-05-19T02:42:00.849Z,99114.66
2023-05-19T02:43:03.397Z,99116.56
2023-05-19T02:44:05.742Z,99116.28
2023-05-19T02:45:08.354Z,99118.97
2023-05-19T02:46:10.256Z,99113.59
2023-05-19T02:47:13.132Z,99121.94
2023-05-19T02:48:15.081Z,99115.47
2023-05-19T02:49:16.980Z,99116.28
2023-05-19T02:50:18.945Z,99119.25
2023-05-19T02:51:20.784Z,99109.56
2023-05-19T02:52:22.751Z,99113.31
2023-05-19T02:53:24.629Z,99114.94
2023-05-19T02:54:26.531Z,99114.94
2023-05-19T02:55:28.810Z,99109.56
2023-05-19T02:56:30.693Z,99110.63
2023-05-19T02:57:34.988Z,99114.94
2023-05-19T02:58:36.958Z,99113.59
2023-05-19T02:59:38.867Z,99107.94
2023-05-19T03:00:40.764Z,99109.81
2023-05-19T03:01:42.708Z,99106.88
2023-05-19T03:02:44.835Z,99110.91
2023-05-19T03:03:46.989Z,99108.22
2023-05-19T03:04:49.000Z,99109.28
2023-05-19T03:05:50.838Z,99108.22
2023-05-19T03:06:54.085Z,99103.91
2023-05-19T03:07:56.225Z,99106.59
2023-05-19T03:08:58.432Z,99106.88
2023-05-19T03:10:03.749Z,99106.88
2023-05-19T03:11:05.861Z,99111.97
2023-05-19T03:12:08.158Z,99106.88
2023-05-19T03:13:10.096Z,99101.75
2023-05-19T03:14:13.695Z,99105.25
2023-05-19T03:15:16.407Z,99100.66
2023-05-19T03:16:19.037Z,99104.97
2023-05-19T03:17:21.153Z,99105.25
2023-05-19T03:18:24.650Z,99109.56
2023-05-19T03:19:27.679Z,99107.13
2023-05-19T03:20:30.576Z,99108.19
2023-05-19T03:21:34.477Z,99107.94
2023-05-19T03:22:36.841Z,99107.38
2023-05-19T03:23:38.683Z,99098.50
2023-05-19T03:24:40.648Z,99102.78
2023-05-19T03:25:42.536Z,99107.38
2023-05-19T03:26:44.424Z,99096.88
2023-05-19T03:27:46.289Z,99104.69
2023-05-19T03:28:48.153Z,99104.13
2023-05-19T03:29:50.718Z,99102.25
2023-05-19T03:30:52.924Z,99099.56
2023-05-19T03:31:54.805Z,99097.69
2023-05-19T03:32:56.788Z,99097.94
2023-05-19T03:33:58.678Z,99097.69
2023-05-19T03:35:00.791Z,99099.56
2023-05-19T03:36:04.034Z,99104.41
2023-05-19T03:37:05.904Z,99103.34
2023-05-19T03:38:07.830Z,99105.75
2023-05-19T03:39:09.741Z,99110.59
2023-05-19T03:40:12.367Z,99107.09
2023-05-19T03:41:14.228Z,99109.78
2023-05-19T03:42:16.281Z,99104.69
2023-05-19T03:43:18.443Z,99105.75
2023-05-19T03:44:20.325Z,99109.25
2023-05-19T03:45:22.149Z,99110.34
2023-05-19T03:46:24.157Z,99109.53
2023-05-19T03:47:26.146Z,99106.03
2023-05-19T03:48:28.064Z,99106.84
2023-05-19T03:49:29.926Z,99104.16
2023-05-19T03:50:31.976Z,99109.53
2023-05-19T03:51:34.827Z,99105.22
2023-05-19T03:52:36.697Z,99108.16
2023-05-19T03:53:38.827Z,99110.84
2023-05-19T03:54:42.640Z,99112.72
2023-05-19T03:55:44.787Z,99112.72
2023-05-19T03:56:46.656Z,99107.34
2023-05-19T03:57:48.789Z,99116.22
2023-05-19T03:58:50.748Z,99117.06
2023-05-19T03:59:52.628Z,99113.81
2023-05-19T04:00:54.521Z,99114.88
2023-05-19T04:01:57.728Z,99122.69
2023-05-19T04:03:00.613Z,99117.56
2023-05-19T04:04:03.359Z,99121.06
2023-05-19T04:05:05.599Z,99114.88
2023-05-19T04:06:08.202Z,99114.88
2023-05-19T04:07:10.094Z,99117.56
2023-05-19T04:08:12.060Z,99113.25
2023-05-19T04:09:16.101Z,99109.50
2023-05-19T04:10:19.057Z,99114.88
2023-05-19T04:11:21.452Z,99121.34
2023-05-19T04:12:23.685Z,99115.97
2023-05-19T04:13:25.710Z,99122.97
2023-05-19T04:14:27.556Z,99124.31
2023-05-19T04:15:29.633Z,99128.88
2023-05-19T04:16:31.789Z,99120.53
2023-05-19T04:17:33.907Z,99125.91
2023-05-19T04:18:35.930Z,99124.31
2023-05-19T04:19:37.890Z,99129.69
2023-05-19T04:20:39.778Z,99127.53
2023-05-19T04:21:41.737Z,99127.53
2023-05-19T04:22:43.750Z,99129.94
2023-05-19T04:23:45.652Z,99132.66
2023-05-19T04:24:48.647Z,99121.06
2023-05-19T04:25:50.804Z,99120.25
2023-05-19T04:26:53.664Z,99128.34
2023-05-19T04:27:57.861Z,99129.41
2023-05-19T04:29:01.831Z,99129.69
2023-05-19T04:30:05.689Z,99125.66
2023-05-19T04:31:11.183Z,99125.91
2023-05-19T04:32:17.712Z,99127.53
2023-05-19T04:33:20.109Z,99122.41
2023-05-19T04:34:22.308Z,99124.03
2023-05-19T04:35:24.752Z,99124.84
2023-05-19T04:36:27.572Z,99125.91
2023-05-19T04:37:29.977Z,99132.91
2023-05-19T04:38:31.903Z,99126.19
2023-05-19T04:39:33.817Z,99123.50
2023-05-19T04:40:35.905Z,99129.09
2023-05-19T04:41:40.396Z,99129.69
2023-05-19T04:42:42.813Z,99129.69
2023-05-19T04:43:44.820Z,99123.69
2023-05-19T04:44:49.261Z,99135.31
2023-05-19T04:45:51.515Z,99131.56
2023-05-19T04:46:54.358Z,99127.22
2023-05-19T04:47:58.155Z,99129.91
2023-05-19T04:49:01.370Z,99127.00
2023-05-19T04:50:05.184Z,99131.78
2023-05-19T04:51:07.510Z,99128.28
2023-05-19T04:52:11.684Z,99130.72
2023-05-19T04:53:13.621Z,99123.50
2023-05-19T04:54:15.823Z,99127.22
2023-05-19T04:55:17.737Z,99129.09
2023-05-19T04:56:19.659Z,99131.56
2023-05-19T04:57:21.600Z,99125.34
2023-05-19T04:58:26.551Z,99133.41
2023-05-19T04:59:28.468Z,99127.00
2023-05-19T05:00:30.356Z,99128.59
2023-05-19T05:01:33.003Z,99121.84
2023-05-19T05:02:35.194Z,99126.19
2023-05-19T05:03:37.316Z,99120.25
2023-05-19T05:04:42.694Z,99126.72
2023-05-19T05:05:44.735Z,99124.03
2023-05-19T05:06:48.015Z,99129.94
2023-05-19T05:07:50.282Z,99128.34
2023-05-19T05:08:53.077Z,99129.41
2023-05-19T05:09:55.007Z,99130.22
2023-05-19T05:10:57.439Z,99124.56
2023-05-19T05:11:59.939Z,99133.19
2023-05-19T05:13:02.180Z,99132.09
2023-05-19T05:14:04.435Z,99134.00
2023-05-19T05:15:07.518Z,99128.06
2023-05-19T05:16:10.416Z,99130.50
2023-05-19T05:17:13.650Z,99122.16
2023-05-19T05:18:16.611Z,99120.81
2023-05-19T05:19:19.194Z,99122.97
2023-05-19T05:20:22.505Z,99120.53
2023-05-19T05:21:24.935Z,99115.97
2023-05-19T05:22:27.294Z,99115.16
2023-05-19T05:23:29.581Z,99114.88
2023-05-19T05:24:31.983Z,99122.16
2023-05-19T05:25:34.574Z,99114.88
2023-05-19T05:26:37.048Z,99118.66
2023-05-19T05:27:38.985Z,99117.56
2023-05-19T05:28:41.979Z,99118.66
2023-05-19T05:29:43.938Z,99120.81
2023-05-19T05:30:46.346Z,99113.81
2023-05-19T05:31:48.198Z,99121.88
2023-05-19T05:32:50.376Z,99120.81
2023-05-19T05:33:52.555Z,99114.38
2023-05-19T05:34:54.631Z,99118.09
2023-05-19T05:35:56.543Z,99120.81
2023-05-19T05:36:58.493Z,99123.25
2023-05-19T05:38:01.630Z,99124.31
2023-05-19T05:39:03.882Z,99119.75
2023-05-19T05:40:07.132Z,99125.94
2023-05-19T05:41:09.072Z,99121.59
2023-05-19T05:42:11.266Z,99119.75
2023-05-19T05:43:13.214Z,99118.69
2023-05-19T05:44:15.060Z,99124.06
2023-05-19T05:45:17.126Z,99119.50
2023-05-19T05:46:19.033Z,99125.94
2023-05-19T05:47:21.470Z,99113.28
2023-05-19T05:48:23.885Z,99116.22
2023-05-19T05:49:26.535Z,99118.41
2023-05-19T05:50:28.840Z,99121.09
2023-05-19T05:51:32.932Z,99122.19
2023-05-19T05:52:37.580Z,99121.91
2023-05-19T05:53:43.292Z,99121.63
2023-05-19T05:54:46.282Z,99115.44
2023-05-19T05:55:48.956Z,99120.03
2023-05-19T05:56:51.255Z,99117.59
2023-05-19T05:57:53.275Z,99113.84
2023-05-19T05:58:55.264Z,99109.25
2023-05-19T05:59:57.557Z,99122.44
2023-05-19T06:00:59.732Z,99118.94
2023-05-19T06:02:01.903Z,99118.94
2023-05-19T06:03:04.604Z,99117.06
2023-05-19T06:04:06.578Z,99120.28
2023-05-19T06:05:12.378Z,99128.38
2023-05-19T06:06:14.516Z,99120.28
2023-05-19T06:07:16.377Z,99116.00
2023-05-19T06:08:18.274Z,99116.00
2023-05-19T06:09:20.210Z,99114.09
2023-05-19T06:10:22.363Z,99116.78
2023-05-19T06:11:24.988Z,99108.44
2023-05-19T06:12:27.258Z,99114.66
2023-05-19T06:13:29.063Z,99104.94
2023-05-19T06:14:30.989Z,99106.84
2023-05-19T06:15:32.928Z,99107.38
2023-05-19T06:16:34.904Z,99102.00
2023-05-19T06:17:36.996Z,99106.28
2023-05-19T06:18:38.992Z,99102.56
2023-05-19T06:19:41.057Z,99104.69
2023-05-19T06:20:43.038Z,99101.19
2023-05-19T06:21:45.075Z,99107.13
2023-05-19T06:22:47.339Z,99103.59
2023-05-19T06:23:49.194Z,99103.59
2023-05-19T06:24:52.323Z,99109.00
2023-05-19T06:25:54.183Z,99109.81
2023-05-19T06:26:56.034Z,99110.06
2023-05-19T06:27:58.064Z,99110.88
2023-05-19T06:28:59.948Z,99115.44
2023-05-19T06:30:02.254Z,99112.53
2023-05-19T06:31:04.246Z,99111.94
2023-05-19T06:32:06.179Z,99111.69
2023-05-19T06:33:08.251Z,99108.75
2023-05-19T06:34:12.282Z,99107.13
2023-05-19T06:35:16.164Z,99110.63
2023-05-19T06:36:18.042Z,99106.28
2023-05-19T06:37:23.792Z,99108.75
2023-05-19T06:38:25.872Z,99115.75
2023-05-19T06:39:27.960Z,99114.94
2023-05-19T06:40:29.964Z,99104.72
2023-05-19T06:41:31.872Z,99114.66
2023-05-19T06:42:34.076Z,99113.59
2023-05-19T06:43:35.979Z,99113.88
2023-05-19T06:44:37.872Z,99115.47
2023-05-19T06:45:39.832Z,99117.09
2023-05-19T06:46:41.892Z,99103.63
2023-05-19T06:47:45.053Z,99114.13
2023-05-19T06:48:46.990Z,99114.13
2023-05-19T06:49:55.349Z,99113.84
2023-05-19T06:50:57.645Z,99112.25
2023-05-19T06:51:59.541Z,99114.66
2023-05-19T06:53:01.832Z,99106.59
2023-05-19T06:54:03.853Z,99107.97
2023-05-19T06:55:06.465Z,99112.50
2023-05-19T06:56:08.410Z,99101.75
2023-05-19T06:57:10.221Z,99114.97
2023-05-19T06:58:12.099Z,99111.19
2023-05-19T06:59:14.020Z,99107.41
2023-05-19T07:00:19.939Z,99110.94
2023-05-19T07:01:23.936Z,99113.34
2023-05-19T07:02:25.832Z,99114.16
2023-05-19T07:03:27.766Z,99107.97
2023-05-19T07:04:29.730Z,99106.88
2023-05-19T07:05:31.658Z,99106.06
2023-05-19T07:06:33.904Z,99113.06
2023-05-19T07:07:36.176Z,99108.22
2023-05-19T07:08:38.154Z,99102.03
2023-05-19T07:09:40.160Z,99107.16
2023-05-19T07:10:42.050Z,99112.00
2023-05-19T07:11:43.895Z,99106.34
2023-05-19T07:12:45.847Z,99104.72
2023-05-19T07:13:47.723Z,99106.06
2023-05-19T07:14:49.607Z,99104.47
2023-05-19T07:15:52.495Z,99103.38
2023-05-19T07:16:54.683Z,99096.94
2023-05-19T07:17:58.446Z,99095.59
2023-05-19T07:19:00.418Z,99100.44
2023-05-19T07:20:02.505Z,99097.47
2023-05-19T07:21:04.508Z,99104.47
2023-05-19T07:22:06.387Z,99102.59
2023-05-19T07:23:08.262Z,99099.91
2023-05-19T07:24:10.111Z,99099.09
2023-05-19T07:25:12.002Z,99101.78
2023-05-19T07:26:13.810Z,99104.47
2023-05-19T07:27:15.671Z,99104.47
2023-05-19T07:28:17.534Z,99103.94
2023-05-19T07:29:19.458Z,99104.47
2023-05-19T07:30:21.404Z,99103.66
2023-05-19T07:31:23.459Z,99100.44
2023-05-19T07:32:25.936Z,99099.34
2023-05-19T07:33:27.950Z,99100.16
2023-05-19T07:34:29.811Z,99096.38
2023-05-19T07:35:31.711Z,99095.59
2023-05-19T07:36:34.188Z,99101.78
2023-05-19T07:37:36.155Z,99094.50
2023-05-19T07:38:38.346Z,99092.38
2023-05-19T07:39:40.292Z,99094.25
2023-05-19T07:40:42.238Z,99095.06
2023-05-19T07:41:44.302Z,99086.41
2023-05-19T07:42:46.296Z,99093.19
2023-05-19T07:43:48.279Z,99086.72
2023-05-19T07:44:50.161Z,99089.13
2023-05-19T07:45:53.512Z,99084.56
2023-05-19T07:46:55.552Z,99079.97
2023-05-19T07:47:57.480Z,99090.75
2023-05-19T07:48:59.375Z,99079.97
2023-05-19T07:50:01.376Z,99087.78
2023-05-19T07:51:03.498Z,99085.91
2023-05-19T07:52:05.715Z,99087.78
2023-05-19T07:53:07.616Z,99090.22
2023-05-19T07:54:09.596Z,99087.53
2023-05-19T07:55:11.722Z,99082.41
2023-05-19T07:56:13.590Z,99091.84
2023-05-19T07:57:16.050Z,99083.75
2023-05-19T07:58:18.058Z,99087.25
2023-05-19T07:59:19.944Z,99090.53
2023-05-19T08:00:21.885Z,99085.38
2023-05-19T08:01:23.749Z,99079.19
2023-05-19T08:02:25.805Z,99077.56
2023-05-19T08:03:28.145Z,99077.84
2023-05-19T08:04:30.186Z,99081.38
2023-05-19T08:05:32.142Z,99087.56
2023-05-19T08:06:35.180Z,99084.88
2023-05-19T08:07:37.158Z,99077.84
2023-05-19T08:08:39.416Z,99071.38
2023-05-19T08:09:41.345Z,99075.69
2023-05-19T08:10:43.645Z,99071.13
2023-05-19T08:11:46.934Z,99080.00
2023-05-19T08:12:48.830Z,99076.50
2023-05-19T08:13:50.882Z,99079.19
2023-05-19T08:14:52.783Z,99083.50
2023-05-19T08:15:59.582Z,99084.59
2023-05-19T08:17:01.960Z,99082.44
2023-05-19T08:18:05.471Z,99073.53
2023-05-19T08:19:07.625Z,99070.56
2023-05-19T08:20:10.365Z,99073.53
2023-05-19T08:21:12.255Z,99071.94
2023-05-19T08:22:14.119Z,99072.47
2023-05-19T08:23:15.970Z,99075.69
2023-05-19T08:24:17.946Z,99071.38
2023-05-19T08:25:20.008Z,99064.09
2023-05-19T08:26:21.874Z,99065.72
2023-05-19T08:27:24.264Z,99071.91
2023-05-19T08:28:26.194Z,99070.81
2023-05-19T08:29:28.245Z,99066.53
2023-05-19T08:30:30.174Z,99056.53
2023-05-19T08:31:32.592Z,99065.44
2023-05-19T08:32:34.579Z,99062.50
2023-05-19T08:33:36.515Z,99067.09
2023-05-19T08:34:39.468Z,99063.31
2023-05-19T08:35:41.443Z,99060.34
2023-05-19T08:36:45.307Z,99063.31
2023-05-19T08:37:47.633Z,99063.84
2023-05-19T08:38:49.521Z,99064.13
2023-05-19T08:39:51.396Z,99056.03
2023-05-19T08:40:53.503Z,99053.88
2023-05-19T08:41:55.800Z,99058.44
2023-05-19T08:42:58.266Z,99051.16
2023-05-19T08:44:00.375Z,99056.28
2023-05-19T08:45:03.220Z,99057.91
2023-05-19T08:46:06.975Z,99052.78
2023-05-19T08:47:14.214Z,99051.69
2023-05-19T08:48:19.321Z,99056.00
2023-05-19T08:49:30.387Z,99050.34
2023-05-19T08:50:41.981Z,99054.94
2023-05-19T08:52:32.796Z,99054.13
2023-05-19T08:53:43.931Z,99062.75
2023-05-19T08:55:06.350Z,99060.03
2023-05-19T08:56:16.398Z,99057.63
2023-05-19T08:57:19.060Z,99059.50
2023-05-19T08:58:22.647Z,99062.47
2023-05-19T08:59:24.642Z,99058.69
2023-05-19T09:00:27.031Z,99059.50
2023-05-19T09:01:30.406Z,99056.81
2023-05-19T09:02:33.539Z,99054.13
2023-05-19T09:03:39.386Z,99059.25
2023-05-19T09:04:45.845Z,99057.34
2023-05-19T09:05:48.959Z,99060.03
2023-05-19T09:06:51.507Z,99060.84
2023-05-19T09:07:53.508Z,99056.53
2023-05-19T09:08:55.417Z,99061.13
2023-05-19T09:09:57.263Z,99061.41
2023-05-19T09:11:02.791Z,99060.59
2023-05-19T09:12:04.876Z,99054.13
2023-05-19T09:13:06.846Z,99057.91
2023-05-19T09:14:08.676Z,99057.63
2023-05-19T09:15:12.742Z,99051.44
2023-05-19T09:16:14.772Z,99053.84
2023-05-19T09:17:18.630Z,99063.56
2023-05-19T09:18:20.841Z,99050.06
2023-05-19T09:19:22.917Z,99051.41
2023-05-19T09:20:26.490Z,99053.31
2023-05-19T09:21:32.608Z,99054.91
2023-05-19T09:22:36.467Z,99053.03
2023-05-19T09:23:38.420Z,99051.13
2023-05-19T09:24:41.470Z,99053.84
2023-05-19T09:25:53.970Z,99048.97
2023-05-19T09:27:00.433Z,99055.19
2023-05-19T09:28:02.713Z,99049.81
2023-05-19T09:29:16.462Z,99046.84
2023-05-19T09:30:19.732Z,99049.81
2023-05-19T09:31:22.485Z,99049.81
2023-05-19T09:32:28.061Z,99051.44
2023-05-19T09:33:32.461Z,99050.34
2023-05-19T09:34:34.341Z,99050.34
2023-05-19T09:35:37.111Z,99054.94
2023-05-19T09:36:42.147Z,99042.25
2023-05-19T09:37:46.307Z,99056.53
2023-05-19T09:38:48.191Z,99050.06
2023-05-19T09:39:52.626Z,99060.84
2023-05-19T09:40:58.390Z,99049.78
2023-05-19T09:42:06.244Z,99046.00
2023-05-19T09:43:08.605Z,99046.00
2023-05-19T09:44:28.817Z,99048.44
2023-05-19T09:45:30.813Z,99054.09
2023-05-19T09:46:35.847Z,99048.72
2023-05-19T09:47:42.118Z,99047.63
2023-05-19T09:48:44.124Z,99049.22
2023-05-19T09:49:48.901Z,99043.03
2023-05-19T09:50:52.831Z,99045.19
2023-05-19T09:51:56.701Z,99046.81
2023-05-19T09:52:58.890Z,99044.94
2023-05-19T09:54:01.457Z,99043.84
2023-05-19T09:55:09.738Z,99045.19
2023-05-19T09:56:12.417Z,99035.47
2023-05-19T09:57:14.281Z,99044.38
2023-05-19T09:58:20.509Z,99038.16
2023-05-19T09:59:26.160Z,99045.44
2023-05-19T10:00:30.700Z,99039.75
2023-05-19T10:01:36.717Z,99045.97
2023-05-19T10:02:44.080Z,99050.84
2023-05-19T10:03:46.328Z,99042.75
2023-05-19T10:04:51.819Z,99050.84
2023-05-19T10:05:58.039Z,99044.09
2023-05-19T10:08:29.987Z,99039.53
2023-05-19T10:09:34.164Z,99033.31
2023-05-19T10:10:39.240Z,99040.03
2023-05-19T10:11:42.048Z,99037.88
2023-05-19T10:12:48.882Z,99037.06
2023-05-19T10:13:53.893Z,99030.59
2023-05-19T10:14:57.086Z,99034.38
2023-05-19T10:16:00.788Z,99032.22
2023-05-19T10:17:03.890Z,99038.44
2023-05-19T10:18:09.612Z,99037.88
2023-05-19T10:19:14.195Z,99036.00
2023-05-19T10:20:17.796Z,99027.63
2023-05-19T10:21:19.705Z,99026.00
2023-05-19T10:22:22.289Z,99026.81
2023-05-19T10:23:24.284Z,99027.63
2023-05-19T10:24:26.754Z,99035.44
2023-05-19T10:25:33.041Z,99021.13
2023-05-19T10:26:36.191Z,99034.91
2023-05-19T10:27:50.071Z,99031.91
2023-05-19T10:28:52.678Z,99031.91
2023-05-19T10:29:59.085Z,99032.72
2023-05-19T10:31:07.548Z,99031.41
2023-05-19T10:32:21.095Z,99030.31
2023-05-19T10:33:39.490Z,99030.03
2023-05-19T10:34:53.452Z,99031.41
2023-05-19T10:36:23.038Z,99024.09
2023-05-19T10:37:57.683Z,99031.91
2023-05-19T10:39:17.112Z,99027.38
2023-05-19T10:40:33.669Z,99026.28
2023-05-19T10:41:41.427Z,99026.03
2023-05-19T10:43:15.603Z,99020.59
2023-05-19T10:45:08.418Z,99026.00
2023-05-19T10:46:10.534Z,99027.66
2023-05-19T10:47:12.745Z,99018.19
2023-05-19T10:48:17.200Z,99016.31
2023-05-19T10:49:23.159Z,99025.19
2023-05-19T10:50:25.848Z,99008.50
2023-05-19T10:51:36.082Z,99023.59
2023-05-19T10:52:40.402Z,99018.19
2023-05-19T10:53:46.568Z,99023.59
2023-05-19T10:54:48.959Z,99023.59
2023-05-19T10:56:04.400Z,99019.81
2023-05-19T10:57:07.095Z,99022.25
2023-05-19T10:58:09.096Z,99026.03
2023-05-19T10:59:35.013Z,99016.03
2023-05-19T11:00:41.177Z,99014.16
2023-05-19T11:01:43.391Z,99026.56
2023-05-19T11:02:46.044Z,99021.44
2023-05-19T11:03:53.221Z,99026.56
2023-05-19T11:04:58.407Z,99022.25
2023-05-19T11:06:24.961Z,99027.63
2023-05-19T11:07:27.231Z,99025.47
2023-05-19T11:08:35.146Z,99032.75
2023-05-19T11:09:43.508Z,99025.47
2023-05-19T11:10:46.427Z,99019.56
2023-05-19T11:11:55.269Z,99029.25
2023-05-19T11:13:00.795Z,99029.78
2023-05-19T11:14:04.453Z,99025.47
2023-05-19T11:15:11.552Z,99022.78
2023-05-19T11:16:14.079Z,99018.19
2023-05-19T11:17:16.386Z,99017.91
2023-05-19T11:18:20.365Z,99016.31
2023-05-19T11:19:35.384Z,99010.63
2023-05-19T11:20:39.495Z,99014.13
2023-05-19T11:21:52.662Z,99015.75
2023-05-19T11:23:08.116Z,99013.03
2023-05-19T11:24:10.446Z,99014.13
2023-05-19T11:25:12.310Z,99013.31
2023-05-19T11:26:14.231Z,99013.84
2023-05-19T11:27:38.108Z,99012.47
2023-05-19T11:28:41.094Z,99007.66
2023-05-19T11:29:43.353Z,99008.72
2023-05-19T11:30:50.912Z,99007.66
2023-05-19T11:31:53.080Z,99016.81
2023-05-19T11:32:55.590Z,99004.94
2023-05-19T11:33:58.237Z,99009.53
2023-05-19T11:35:01.000Z,99010.09
2023-05-19T11:36:04.292Z,99012.00
2023-05-19T11:37:07.620Z,99016.31
2023-05-19T11:38:11.505Z,99009.81
2023-05-19T11:39:15.257Z,99011.72
2023-05-19T11:40:18.505Z,99008.72
2023-05-19T11:41:21.215Z,99014.13
2023-05-19T11:42:23.927Z,99016.81
2023-05-19T11:43:26.600Z,99014.13
2023-05-19T11:44:28.511Z,99017.09
2023-05-19T11:45:33.003Z,99012.50
2023-05-19T11:46:35.630Z,99014.94
2023-05-19T11:47:51.653Z,99010.91
2023-05-19T11:48:59.820Z,99015.75
2023-05-19T11:50:01.874Z,99008.22
2023-05-19T11:51:06.477Z,99008.50
2023-05-19T11:52:08.609Z,99009.84
2023-05-19T11:53:15.139Z,99009.84
2023-05-19T11:54:19.178Z,99002.81
2023-05-19T11:55:22.213Z,99002.28
2023-05-19T11:56:24.205Z,99003.66
2023-05-19T11:57:26.380Z,99005.00
2023-05-19T11:58:28.315Z,99007.97
2023-05-19T11:59:36.429Z,98995.03
2023-05-19T12:00:41.029Z,99004.50
2023-05-19T12:01:43.119Z,99004.50
2023-05-19T12:02:45.245Z,99001.00
2023-05-19T12:03:47.551Z,99000.19
2023-05-19T12:04:49.710Z,99005.56
2023-05-19T12:05:53.761Z,99000.19
2023-05-19T12:06:55.774Z,98998.81
2023-05-19T12:07:58.263Z,99001.50
2023-05-19T12:09:00.955Z,99000.44
2023-05-19T12:10:03.838Z,99000.16
2023-05-19T12:11:06.560Z,98998.53
2023-05-19T12:12:08.603Z,99002.03
2023-05-19T12:13:11.322Z,99003.13
2023-05-19T12:14:13.262Z,99009.31
2023-05-19T12:15:16.626Z,99001.00
2023-05-19T12:16:21.124Z,99010.41
2023-05-19T12:17:25.964Z,99007.44
2023-05-19T12:18:33.779Z,99009.06
2023-05-19T12:19:35.751Z,99005.56
2023-05-19T12:20:37.969Z,99005.31
2023-05-19T12:21:40.964Z,99006.41
2023-05-19T12:22:44.081Z,99010.44
2023-05-19T12:23:46.234Z,99003.44
2023-05-19T12:24:49.415Z,99006.41
2023-05-19T12:25:51.774Z,99001.00
2023-05-19T12:27:14.079Z,99022.28
2023-05-19T12:28:16.731Z,98995.09
2023-05-19T12:29:18.588Z,99000.75
2023-05-19T12:30:29.544Z,99001.84
2023-05-19T12:31:31.639Z,98998.84
2023-05-19T12:32:37.846Z,98998.34
2023-05-19T12:33:40.166Z,98993.22
2023-05-19T12:34:42.660Z,99002.66
2023-05-19T12:35:47.923Z,99000.25
2023-05-19T12:36:50.197Z,98995.94
2023-05-19T12:37:52.260Z,98997.03